sensor_id;sensor_type;location;lat;lon;timestamp;temperature;humidity
36594;DHT22;22603;47.900;8.146;2022-07-29T04:03:16;13.00;99.90
36594;DHT22;22603;47.900;8.146;2022-07-29T04:06:05;13.00;99.90
36594;DHT22;22603;47.900;8.146;2022-07-29T04:08:53;13.00;99.90
36594;DHT22;22603;47.900;8.146;2022-07-29T04:11:40;13.00;99.90
36594;DHT22;22603;47.900;8.146;2022-07-29T04:14:47;13.00;99.90
36594;DHT22;22603;47.900;8.146;2022-07-29T04:17:35;13.10;99.90
36594;DHT22;22603;47.900;8.146;2022-07-29T04:20:23;13.10;99.90
36594;DHT22;22603;47.900;8.146;2022-07-29T04:23:11;13.10;99.90
36594;DHT22;22603;47.900;8.146;2022-07-29T04:25:58;13.20;99.90
36594;DHT22;22603;47.900;8.146;2022-07-29T04:28:46;13.30;99.90
36594;DHT22;22603;47.900;8.146;2022-07-29T04:31:33;13.30;99.90
36594;DHT22;22603;47.900;8.146;2022-07-29T04:34:20;13.40;99.90
36594;DHT22;22603;47.900;8.146;2022-07-29T04:37:14;13.40;99.90
36594;DHT22;22603;47.900;8.146;2022-07-29T04:40:01;13.50;99.90
36594;DHT22;22603;47.900;8.146;2022-07-29T04:42:48;13.50;99.90
36594;DHT22;22603;47.900;8.146;2022-07-29T04:45:35;13.60;99.90
36594;DHT22;22603;47.900;8.146;2022-07-29T04:48:22;13.60;99.90
36594;DHT22;22603;47.900;8.146;2022-07-29T04:51:13;13.70;99.90
36594;DHT22;22603;47.900;8.146;2022-07-29T04:54:02;13.70;99.90
36594;DHT22;22603;47.900;8.146;2022-07-29T04:56:49;13.80;99.90
36594;DHT22;22603;47.900;8.146;2022-07-29T04:59:37;13.90;99.90
36594;DHT22;22603;47.900;8.146;2022-07-29T05:02:24;14.00;99.90
36594;DHT22;22603;47.900;8.146;2022-07-29T05:05:11;14.10;99.90
36594;DHT22;22603;47.900;8.146;2022-07-29T05:07:59;14.30;99.90
36594;DHT22;22603;47.900;8.146;2022-07-29T05:10:48;14.50;99.90
36594;DHT22;22603;47.900;8.146;2022-07-29T05:13:35;14.70;99.90
36594;DHT22;22603;47.900;8.146;2022-07-29T05:16:31;14.80;99.90
36594;DHT22;22603;47.900;8.146;2022-07-29T05:19:19;15.10;99.90
36594;DHT22;22603;47.900;8.146;2022-07-29T05:22:06;15.20;99.90
36594;DHT22;22603;47.900;8.146;2022-07-29T05:24:53;15.40;99.90
36594;DHT22;22603;47.900;8.146;2022-07-29T05:27:42;15.60;99.90
36594;DHT22;22603;47.900;8.146;2022-07-29T05:30:29;15.70;99.90
36594;DHT22;22603;47.900;8.146;2022-07-29T05:33:17;15.70;99.90
36594;DHT22;22603;47.900;8.146;2022-07-29T05:36:21;15.80;99.90
36594;DHT22;22603;47.900;8.146;2022-07-29T05:39:08;15.90;99.90
36594;DHT22;22603;47.900;8.146;2022-07-29T05:41:55;16.00;99.90
36594;DHT22;22603;47.900;8.146;2022-07-29T05:44:44;16.10;99.90
36594;DHT22;22603;47.900;8.146;2022-07-29T05:47:30;16.30;99.90
36594;DHT22;22603;47.900;8.146;2022-07-29T05:50:18;16.20;99.90
36594;DHT22;22603;47.900;8.146;2022-07-29T05:53:05;16.30;99.90
36594;DHT22;22603;47.900;8.146;2022-07-29T05:56:05;16.30;99.90
36594;DHT22;22603;47.900;8.146;2022-07-29T05:58:52;16.20;99.90
36594;DHT22;22603;47.900;8.146;2022-07-29T06:01:41;16.20;99.90
36594;DHT22;22603;47.900;8.146;2022-07-29T06:04:29;16.40;99.90
36594;DHT22;22603;47.900;8.146;2022-07-29T06:07:16;16.70;99.90
36594;DHT22;22603;47.900;8.146;2022-07-29T06:10:03;16.90;99.90
36594;DHT22;22603;47.900;8.146;2022-07-29T06:12:51;17.00;99.90
36594;DHT22;22603;47.900;8.146;2022-07-29T06:15:39;16.90;99.90
36594;DHT22;22603;47.900;8.146;2022-07-29T06:18:27;17.10;99.90
36594;DHT22;22603;47.900;8.146;2022-07-29T06:21:14;17.20;99.90
36594;DHT22;22603;47.900;8.146;2022-07-29T06:24:02;17.30;99.90
36594;DHT22;22603;47.900;8.146;2022-07-29T06:26:49;17.30;99.90
36594;DHT22;22603;47.900;8.146;2022-07-29T06:29:36;17.30;99.90
36594;DHT22;22603;47.900;8.146;2022-07-29T06:32:25;17.50;99.90
36594;DHT22;22603;47.900;8.146;2022-07-29T06:35:13;17.60;99.90
36594;DHT22;22603;47.900;8.146;2022-07-29T06:38:21;17.80;99.90
36594;DHT22;22603;47.900;8.146;2022-07-29T06:41:18;18.10;99.90
36594;DHT22;22603;47.900;8.146;2022-07-29T06:44:06;18.20;99.90
36594;DHT22;22603;47.900;8.146;2022-07-29T06:46:52;18.30;99.90
36594;DHT22;22603;47.900;8.146;2022-07-29T06:49:40;18.40;99.90
36594;DHT22;22603;47.900;8.146;2022-07-29T06:52:29;18.40;99.90
36594;DHT22;22603;47.900;8.146;2022-07-29T06:55:16;18.40;99.90
36594;DHT22;22603;47.900;8.146;2022-07-29T06:58:09;18.40;99.90
36594;DHT22;22603;47.900;8.146;2022-07-29T07:00:58;18.30;99.90
36594;DHT22;22603;47.900;8.146;2022-07-29T07:03:46;18.40;99.90
36594;DHT22;22603;47.900;8.146;2022-07-29T07:06:33;18.50;99.90
36594;DHT22;22603;47.900;8.146;2022-07-29T07:09:22;18.70;99.90
36594;DHT22;22603;47.900;8.146;2022-07-29T07:12:24;18.90;99.90
36594;DHT22;22603;47.900;8.146;2022-07-29T07:15:11;19.20;99.90
36594;DHT22;22603;47.900;8.146;2022-07-29T07:17:58;19.40;99.90
36594;DHT22;22603;47.900;8.146;2022-07-29T07:20:45;19.50;99.90
36594;DHT22;22603;47.900;8.146;2022-07-29T07:23:33;19.80;99.90
36594;DHT22;22603;47.900;8.146;2022-07-29T07:26:22;19.90;99.90
36594;DHT22;22603;47.900;8.146;2022-07-29T07:29:09;20.00;99.90
36594;DHT22;22603;47.900;8.146;2022-07-29T07:31:57;19.90;99.90
36594;DHT22;22603;47.900;8.146;2022-07-29T07:34:45;19.80;99.90
36594;DHT22;22603;47.900;8.146;2022-07-29T07:37:33;19.60;99.90
36594;DHT22;22603;47.900;8.146;2022-07-29T07:40:21;19.40;99.90
36594;DHT22;22603;47.900;8.146;2022-07-29T07:43:12;19.40;99.90
36594;DHT22;22603;47.900;8.146;2022-07-29T07:45:59;19.40;99.90
36594;DHT22;22603;47.900;8.146;2022-07-29T07:48:47;19.40;99.90
36594;DHT22;22603;47.900;8.146;2022-07-29T07:51:34;19.60;99.90
36594;DHT22;22603;47.900;8.146;2022-07-29T07:54:21;19.70;99.90
36594;DHT22;22603;47.900;8.146;2022-07-29T07:57:09;19.80;99.90
36594;DHT22;22603;47.900;8.146;2022-07-29T07:59:58;20.00;99.90
36594;DHT22;22603;47.900;8.146;2022-07-29T08:02:45;20.10;99.90
36594;DHT22;22603;47.900;8.146;2022-07-29T08:05:33;20.10;99.90
36594;DHT22;22603;47.900;8.146;2022-07-29T08:08:24;20.30;99.90
36594;DHT22;22603;47.900;8.146;2022-07-29T08:11:10;20.50;99.90
36594;DHT22;22603;47.900;8.146;2022-07-29T08:13:57;20.60;99.90
36594;DHT22;22603;47.900;8.146;2022-07-29T08:16:48;20.30;99.90
36594;DHT22;22603;47.900;8.146;2022-07-29T08:19:35;20.40;99.90
36594;DHT22;22603;47.900;8.146;2022-07-29T08:22:23;20.50;99.90
36594;DHT22;22603;47.900;8.146;2022-07-29T08:25:10;20.50;99.90
36594;DHT22;22603;47.900;8.146;2022-07-29T08:28:01;20.40;99.90
36594;DHT22;22603;47.900;8.146;2022-07-29T08:30:49;20.40;99.90
36594;DHT22;22603;47.900;8.146;2022-07-29T08:33:38;20.40;99.90
36594;DHT22;22603;47.900;8.146;2022-07-29T08:36:25;20.50;99.90
36594;DHT22;22603;47.900;8.146;2022-07-29T08:39:12;20.60;99.90
36594;DHT22;22603;47.900;8.146;2022-07-29T08:41:59;20.60;99.90
36594;DHT22;22603;47.900;8.146;2022-07-29T08:44:46;20.60;99.90
36594;DHT22;22603;47.900;8.146;2022-07-29T08:47:34;20.40;99.90
36594;DHT22;22603;47.900;8.146;2022-07-29T08:50:23;20.20;99.90
36594;DHT22;22603;47.900;8.146;2022-07-29T08:53:12;20.10;99.90
36594;DHT22;22603;47.900;8.146;2022-07-29T08:56:00;20.00;99.90
36594;DHT22;22603;47.900;8.146;2022-07-29T08:58:48;19.90;99.90
36594;DHT22;22603;47.900;8.146;2022-07-29T09:01:37;19.80;99.90
36594;DHT22;22603;47.900;8.146;2022-07-29T09:04:32;19.70;99.90
36594;DHT22;22603;47.900;8.146;2022-07-29T09:07:22;19.70;99.90
36594;DHT22;22603;47.900;8.146;2022-07-29T09:10:19;19.70;99.90
36594;DHT22;22603;47.900;8.146;2022-07-29T09:13:06;19.60;99.90
36594;DHT22;22603;47.900;8.146;2022-07-29T09:15:53;19.50;99.90
36594;DHT22;22603;47.900;8.146;2022-07-29T09:18:42;19.40;99.90
36594;DHT22;22603;47.900;8.146;2022-07-29T09:21:40;19.50;99.90
36594;DHT22;22603;47.900;8.146;2022-07-29T09:24:49;19.50;99.90
36594;DHT22;22603;47.900;8.146;2022-07-29T09:27:37;19.60;99.90
36594;DHT22;22603;47.900;8.146;2022-07-29T09:30:24;19.80;99.90
36594;DHT22;22603;47.900;8.146;2022-07-29T09:33:16;19.90;99.90
36594;DHT22;22603;47.900;8.146;2022-07-29T09:36:05;20.10;99.90
36594;DHT22;22603;47.900;8.146;2022-07-29T09:38:57;20.20;99.90
36594;DHT22;22603;47.900;8.146;2022-07-29T09:41:49;20.40;99.90
36594;DHT22;22603;47.900;8.146;2022-07-29T09:44:43;20.50;99.90
36594;DHT22;22603;47.900;8.146;2022-07-29T09:47:41;20.80;99.90
36594;DHT22;22603;47.900;8.146;2022-07-29T09:50:37;21.20;99.90
36594;DHT22;22603;47.900;8.146;2022-07-29T09:53:33;21.90;99.90
36594;DHT22;22603;47.900;8.146;2022-07-29T09:56:38;22.90;99.90
36594;DHT22;22603;47.900;8.146;2022-07-29T09:59:26;23.40;99.90
36594;DHT22;22603;47.900;8.146;2022-07-29T10:02:14;22.90;99.90
36594;DHT22;22603;47.900;8.146;2022-07-29T10:05:17;23.30;99.90
36594;DHT22;22603;47.900;8.146;2022-07-29T10:08:05;24.00;99.90
36594;DHT22;22603;47.900;8.146;2022-07-29T10:11:09;24.30;99.90
36594;DHT22;22603;47.900;8.146;2022-07-29T10:13:56;24.60;99.90
36594;DHT22;22603;47.900;8.146;2022-07-29T10:16:45;25.10;99.90
36594;DHT22;22603;47.900;8.146;2022-07-29T10:19:33;25.20;99.90
36594;DHT22;22603;47.900;8.146;2022-07-29T10:22:21;25.60;99.90
36594;DHT22;22603;47.900;8.146;2022-07-29T10:25:29;25.50;99.90
36594;DHT22;22603;47.900;8.146;2022-07-29T10:28:16;25.40;99.90
36594;DHT22;22603;47.900;8.146;2022-07-29T10:31:06;25.50;99.90
36594;DHT22;22603;47.900;8.146;2022-07-29T10:34:03;25.40;99.90
36594;DHT22;22603;47.900;8.146;2022-07-29T10:36:56;25.50;99.90
36594;DHT22;22603;47.900;8.146;2022-07-29T10:39:55;25.30;99.90
36594;DHT22;22603;47.900;8.146;2022-07-29T10:42:44;25.70;99.90
36594;DHT22;22603;47.900;8.146;2022-07-29T10:45:32;26.00;99.90
36594;DHT22;22603;47.900;8.146;2022-07-29T10:48:20;26.20;99.90
36594;DHT22;22603;47.900;8.146;2022-07-29T10:51:09;26.40;99.90
36594;DHT22;22603;47.900;8.146;2022-07-29T10:53:57;25.80;99.90
36594;DHT22;22603;47.900;8.146;2022-07-29T10:56:45;26.40;99.90
36594;DHT22;22603;47.900;8.146;2022-07-29T10:59:32;26.70;99.90
36594;DHT22;22603;47.900;8.146;2022-07-29T11:02:45;26.70;99.90
36594;DHT22;22603;47.900;8.146;2022-07-29T11:05:53;26.50;99.90
36594;DHT22;22603;47.900;8.146;2022-07-29T11:08:46;26.60;99.90
36594;DHT22;22603;47.900;8.146;2022-07-29T11:11:53;26.30;99.90
36594;DHT22;22603;47.900;8.146;2022-07-29T11:14:56;25.90;99.90
36594;DHT22;22603;47.900;8.146;2022-07-29T11:18:08;25.50;99.90
36594;DHT22;22603;47.900;8.146;2022-07-29T11:21:02;25.80;99.90
36594;DHT22;22603;47.900;8.146;2022-07-29T11:24:11;26.00;99.90
36594;DHT22;22603;47.900;8.146;2022-07-29T11:27:15;26.20;99.90
36594;DHT22;22603;47.900;8.146;2022-07-29T11:30:49;26.10;99.90
36594;DHT22;22603;47.900;8.146;2022-07-29T11:33:37;26.20;99.90
36594;DHT22;22603;47.900;8.146;2022-07-29T11:40:18;25.20;99.90
36594;DHT22;22603;47.900;8.146;2022-07-29T11:43:07;25.00;99.90
36594;DHT22;22603;47.900;8.146;2022-07-29T11:45:59;24.90;99.90
36594;DHT22;22603;47.900;8.146;2022-07-29T11:48:47;24.70;99.90
36594;DHT22;22603;47.900;8.146;2022-07-29T11:55:36;24.30;99.90
36594;DHT22;22603;47.900;8.146;2022-07-29T11:58:36;24.00;99.90
36594;DHT22;22603;47.900;8.146;2022-07-29T12:01:25;24.00;99.90
36594;DHT22;22603;47.900;8.146;2022-07-29T12:04:12;24.00;99.90
36594;DHT22;22603;47.900;8.146;2022-07-29T12:07:04;23.70;99.90
36594;DHT22;22603;47.900;8.146;2022-07-29T12:09:52;23.60;99.90
36594;DHT22;22603;47.900;8.146;2022-07-29T12:12:42;23.40;99.90
36594;DHT22;22603;47.900;8.146;2022-07-29T12:15:38;23.20;99.90
36594;DHT22;22603;47.900;8.146;2022-07-29T12:18:31;23.20;99.90
36594;DHT22;22603;47.900;8.146;2022-07-29T12:21:18;23.20;99.90
36594;DHT22;22603;47.900;8.146;2022-07-29T12:24:10;23.30;99.90
36594;DHT22;22603;47.900;8.146;2022-07-29T12:26:58;23.20;99.90
36594;DHT22;22603;47.900;8.146;2022-07-29T12:29:56;23.20;99.90
36594;DHT22;22603;47.900;8.146;2022-07-29T12:32:46;23.20;99.90
36594;DHT22;22603;47.900;8.146;2022-07-29T12:35:33;22.90;99.90
36594;DHT22;22603;47.900;8.146;2022-07-29T12:38:21;23.00;99.90
36594;DHT22;22603;47.900;8.146;2022-07-29T12:41:08;22.80;99.90
36594;DHT22;22603;47.900;8.146;2022-07-29T12:43:56;22.70;99.90
36594;DHT22;22603;47.900;8.146;2022-07-29T12:46:44;22.50;99.90
36594;DHT22;22603;47.900;8.146;2022-07-29T12:49:31;22.30;99.90
36594;DHT22;22603;47.900;8.146;2022-07-29T12:52:30;21.90;99.90
36594;DHT22;22603;47.900;8.146;2022-07-29T12:59:38;21.70;99.90
36594;DHT22;22603;47.900;8.146;2022-07-29T13:02:27;21.50;99.90
36594;DHT22;22603;47.900;8.146;2022-07-29T13:05:14;21.30;99.90
36594;DHT22;22603;47.900;8.146;2022-07-29T13:08:10;21.20;99.90
36594;DHT22;22603;47.900;8.146;2022-07-29T13:11:07;21.00;99.90
36594;DHT22;22603;47.900;8.146;2022-07-29T13:13:54;20.90;99.90
36594;DHT22;22603;47.900;8.146;2022-07-29T13:17:02;20.70;99.90
36594;DHT22;22603;47.900;8.146;2022-07-29T13:19:53;20.50;99.90
36594;DHT22;22603;47.900;8.146;2022-07-29T13:22:40;20.50;99.90
36594;DHT22;22603;47.900;8.146;2022-07-29T13:29:32;20.40;99.90
36594;DHT22;22603;47.900;8.146;2022-07-29T13:32:20;20.60;99.90
36594;DHT22;22603;47.900;8.146;2022-07-29T13:35:15;20.80;99.90
36594;DHT22;22603;47.900;8.146;2022-07-29T13:38:02;20.80;99.90
36594;DHT22;22603;47.900;8.146;2022-07-29T13:40:49;20.80;99.90
36594;DHT22;22603;47.900;8.146;2022-07-29T13:43:36;20.80;99.90
36594;DHT22;22603;47.900;8.146;2022-07-29T13:46:23;20.70;99.90
36594;DHT22;22603;47.900;8.146;2022-07-29T13:49:10;20.70;99.90
36594;DHT22;22603;47.900;8.146;2022-07-29T13:51:59;20.30;99.90
36594;DHT22;22603;47.900;8.146;2022-07-29T13:54:47;20.40;99.90
36594;DHT22;22603;47.900;8.146;2022-07-29T13:57:34;20.60;99.90
36594;DHT22;22603;47.900;8.146;2022-07-29T14:00:21;20.70;99.90
36594;DHT22;22603;47.900;8.146;2022-07-29T14:03:09;20.70;99.90
36594;DHT22;22603;47.900;8.146;2022-07-29T14:05:56;20.60;99.90
36594;DHT22;22603;47.900;8.146;2022-07-29T14:08:47;21.10;99.90
36594;DHT22;22603;47.900;8.146;2022-07-29T14:11:34;21.50;99.90
36594;DHT22;22603;47.900;8.146;2022-07-29T14:14:23;21.70;99.90
36594;DHT22;22603;47.900;8.146;2022-07-29T14:17:17;21.70;99.90
36594;DHT22;22603;47.900;8.146;2022-07-29T14:20:05;21.90;99.90
36594;DHT22;22603;47.900;8.146;2022-07-29T14:22:52;22.00;99.90
36594;DHT22;22603;47.900;8.146;2022-07-29T14:25:41;22.20;99.90
36594;DHT22;22603;47.900;8.146;2022-07-29T14:28:29;22.30;99.90
36594;DHT22;22603;47.900;8.146;2022-07-29T14:31:16;22.50;99.90
36594;DHT22;22603;47.900;8.146;2022-07-29T14:34:04;22.60;99.90
36594;DHT22;22603;47.900;8.146;2022-07-29T14:36:51;22.70;99.90
36594;DHT22;22603;47.900;8.146;2022-07-29T14:39:40;22.90;99.90
36594;DHT22;22603;47.900;8.146;2022-07-29T14:42:29;22.90;99.90
36594;DHT22;22603;47.900;8.146;2022-07-29T14:45:17;23.00;99.90
36594;DHT22;22603;47.900;8.146;2022-07-29T14:48:04;23.00;99.90
36594;DHT22;22603;47.900;8.146;2022-07-29T14:50:52;22.90;99.90
36594;DHT22;22603;47.900;8.146;2022-07-29T14:53:40;22.80;99.90
36594;DHT22;22603;47.900;8.146;2022-07-29T14:56:27;22.90;99.90
36594;DHT22;22603;47.900;8.146;2022-07-29T14:59:23;22.70;99.90
36594;DHT22;22603;47.900;8.146;2022-07-29T15:02:11;22.70;99.90
36594;DHT22;22603;47.900;8.146;2022-07-29T15:04:58;22.60;99.90
36594;DHT22;22603;47.900;8.146;2022-07-29T15:07:45;22.50;99.90
36594;DHT22;22603;47.900;8.146;2022-07-29T15:10:32;22.50;99.90
36594;DHT22;22603;47.900;8.146;2022-07-29T15:13:19;22.10;99.90
36594;DHT22;22603;47.900;8.146;2022-07-29T15:16:08;22.10;99.90
36594;DHT22;22603;47.900;8.146;2022-07-29T15:18:56;22.30;99.90
36594;DHT22;22603;47.900;8.146;2022-07-29T15:21:46;21.90;99.90
36594;DHT22;22603;47.900;8.146;2022-07-29T15:24:34;21.50;99.90
36594;DHT22;22603;47.900;8.146;2022-07-29T15:27:22;21.00;99.90
36594;DHT22;22603;47.900;8.146;2022-07-29T15:30:47;21.10;99.90
36594;DHT22;22603;47.900;8.146;2022-07-29T15:33:35;21.00;99.90
36594;DHT22;22603;47.900;8.146;2022-07-29T15:36:23;21.00;99.90
36594;DHT22;22603;47.900;8.146;2022-07-29T15:39:30;20.80;99.90
36594;DHT22;22603;47.900;8.146;2022-07-29T15:42:17;20.60;99.90
36594;DHT22;22603;47.900;8.146;2022-07-29T15:45:05;20.50;99.90
36594;DHT22;22603;47.900;8.146;2022-07-29T15:47:53;20.50;99.90
36594;DHT22;22603;47.900;8.146;2022-07-29T15:50:41;20.20;99.90
36594;DHT22;22603;47.900;8.146;2022-07-29T15:53:31;20.30;99.90
36594;DHT22;22603;47.900;8.146;2022-07-29T15:56:20;20.20;99.90
36594;DHT22;22603;47.900;8.146;2022-07-29T15:59:07;20.40;99.90
36594;DHT22;22603;47.900;8.146;2022-07-29T16:02:07;20.30;99.90
36594;DHT22;22603;47.900;8.146;2022-07-29T16:04:55;20.30;99.90
36594;DHT22;22603;47.900;8.146;2022-07-29T16:07:43;20.20;99.90
36594;DHT22;22603;47.900;8.146;2022-07-29T16:10:30;20.30;99.90
36594;DHT22;22603;47.900;8.146;2022-07-29T16:13:18;20.30;99.90
36594;DHT22;22603;47.900;8.146;2022-07-29T16:16:05;20.20;99.90
36594;DHT22;22603;47.900;8.146;2022-07-29T16:18:53;20.20;99.90
36594;DHT22;22603;47.900;8.146;2022-07-29T16:21:40;20.00;99.90
36594;DHT22;22603;47.900;8.146;2022-07-29T16:24:29;20.20;99.90
36594;DHT22;22603;47.900;8.146;2022-07-29T16:27:17;20.20;99.90
36594;DHT22;22603;47.900;8.146;2022-07-29T16:30:09;20.10;99.90
36594;DHT22;22603;47.900;8.146;2022-07-29T16:32:57;20.20;99.90
36594;DHT22;22603;47.900;8.146;2022-07-29T16:35:44;20.20;99.90
36594;DHT22;22603;47.900;8.146;2022-07-29T16:38:31;20.30;99.90
36594;DHT22;22603;47.900;8.146;2022-07-29T16:41:22;20.60;99.90
36594;DHT22;22603;47.900;8.146;2022-07-29T16:44:09;20.60;99.90
36594;DHT22;22603;47.900;8.146;2022-07-29T16:46:56;20.60;99.90
36594;DHT22;22603;47.900;8.146;2022-07-29T16:49:46;20.80;99.90
36594;DHT22;22603;47.900;8.146;2022-07-29T16:52:33;21.40;99.90
36594;DHT22;22603;47.900;8.146;2022-07-29T16:55:22;21.30;99.90
36594;DHT22;22603;47.900;8.146;2022-07-29T16:58:11;21.40;99.90
36594;DHT22;22603;47.900;8.146;2022-07-29T17:00:58;21.50;99.90
36594;DHT22;22603;47.900;8.146;2022-07-29T17:03:46;21.40;99.90
36594;DHT22;22603;47.900;8.146;2022-07-29T17:06:50;21.30;99.90
36594;DHT22;22603;47.900;8.146;2022-07-29T17:09:37;21.20;99.90
36594;DHT22;22603;47.900;8.146;2022-07-29T17:12:25;21.00;99.90
36594;DHT22;22603;47.900;8.146;2022-07-29T17:15:13;21.10;99.90
36594;DHT22;22603;47.900;8.146;2022-07-29T17:18:03;20.80;99.90
36594;DHT22;22603;47.900;8.146;2022-07-29T17:20:57;20.80;99.90
36594;DHT22;22603;47.900;8.146;2022-07-29T17:23:44;20.70;99.90
36594;DHT22;22603;47.900;8.146;2022-07-29T17:26:31;20.70;99.90
36594;DHT22;22603;47.900;8.146;2022-07-29T17:29:18;20.80;99.90
36594;DHT22;22603;47.900;8.146;2022-07-29T17:32:08;20.90;99.90
36594;DHT22;22603;47.900;8.146;2022-07-29T17:34:55;20.80;99.90
36594;DHT22;22603;47.900;8.146;2022-07-29T17:37:43;20.80;99.90
36594;DHT22;22603;47.900;8.146;2022-07-29T17:40:30;20.70;99.90
36594;DHT22;22603;47.900;8.146;2022-07-29T17:43:17;20.70;99.90
36594;DHT22;22603;47.900;8.146;2022-07-29T17:46:04;20.70;99.90
36594;DHT22;22603;47.900;8.146;2022-07-29T17:48:54;20.80;99.90
36594;DHT22;22603;47.900;8.146;2022-07-29T17:51:42;20.80;99.90
36594;DHT22;22603;47.900;8.146;2022-07-29T17:54:29;20.70;99.90
36594;DHT22;22603;47.900;8.146;2022-07-29T17:57:16;20.60;99.90
36594;DHT22;22603;47.900;8.146;2022-07-29T18:00:05;20.40;99.90
36594;DHT22;22603;47.900;8.146;2022-07-29T18:02:53;20.30;99.90
36594;DHT22;22603;47.900;8.146;2022-07-29T18:05:45;20.20;99.90
36594;DHT22;22603;47.900;8.146;2022-07-29T18:08:32;20.00;99.90
36594;DHT22;22603;47.900;8.146;2022-07-29T18:11:20;20.00;99.90
36594;DHT22;22603;47.900;8.146;2022-07-29T18:14:07;19.80;99.90
36594;DHT22;22603;47.900;8.146;2022-07-29T18:16:54;19.70;99.90
36594;DHT22;22603;47.900;8.146;2022-07-29T18:19:42;19.60;99.90
36594;DHT22;22603;47.900;8.146;2022-07-29T18:22:35;19.50;99.90
36594;DHT22;22603;47.900;8.146;2022-07-29T18:25:22;19.40;99.90
36594;DHT22;22603;47.900;8.146;2022-07-29T18:28:10;19.30;99.90
36594;DHT22;22603;47.900;8.146;2022-07-29T18:30:57;19.10;99.90
36594;DHT22;22603;47.900;8.146;2022-07-29T18:33:45;19.10;99.90
36594;DHT22;22603;47.900;8.146;2022-07-29T18:36:32;19.00;99.90
36594;DHT22;22603;47.900;8.146;2022-07-29T18:39:21;18.90;99.90
36594;DHT22;22603;47.900;8.146;2022-07-29T18:42:08;18.70;99.90
36594;DHT22;22603;47.900;8.146;2022-07-29T18:44:55;18.60;99.90
36594;DHT22;22603;47.900;8.146;2022-07-29T18:47:43;18.50;99.90
36594;DHT22;22603;47.900;8.146;2022-07-29T18:50:32;18.50;99.90
36594;DHT22;22603;47.900;8.146;2022-07-29T18:53:19;18.50;99.90
36594;DHT22;22603;47.900;8.146;2022-07-29T18:56:07;18.40;99.90
36594;DHT22;22603;47.900;8.146;2022-07-29T18:58:54;18.30;99.90
36594;DHT22;22603;47.900;8.146;2022-07-29T19:01:42;18.20;99.90
36594;DHT22;22603;47.900;8.146;2022-07-29T19:04:29;18.10;99.90
36594;DHT22;22603;47.900;8.146;2022-07-29T19:07:16;17.90;99.90
36594;DHT22;22603;47.900;8.146;2022-07-29T19:10:04;17.90;99.90
36594;DHT22;22603;47.900;8.146;2022-07-29T19:12:53;17.80;99.90
36594;DHT22;22603;47.900;8.146;2022-07-29T19:15:41;17.70;99.90
36594;DHT22;22603;47.900;8.146;2022-07-29T19:18:29;17.60;99.90
36594;DHT22;22603;47.900;8.146;2022-07-29T19:21:16;17.40;99.90
36594;DHT22;22603;47.900;8.146;2022-07-29T19:24:05;17.20;99.90
36594;DHT22;22603;47.900;8.146;2022-07-29T19:26:59;17.20;99.90
36594;DHT22;22603;47.900;8.146;2022-07-29T19:29:47;17.10;99.90
36594;DHT22;22603;47.900;8.146;2022-07-29T19:32:35;17.00;99.90
36594;DHT22;22603;47.900;8.146;2022-07-29T19:35:23;16.90;99.90
36594;DHT22;22603;47.900;8.146;2022-07-29T19:38:13;16.80;99.90
36594;DHT22;22603;47.900;8.146;2022-07-29T19:41:00;16.70;99.90
36594;DHT22;22603;47.900;8.146;2022-07-29T19:43:47;16.50;99.90
36594;DHT22;22603;47.900;8.146;2022-07-29T19:46:39;16.40;99.90
36594;DHT22;22603;47.900;8.146;2022-07-29T19:49:26;16.30;99.90
36594;DHT22;22603;47.900;8.146;2022-07-29T19:52:14;16.30;99.90
36594;DHT22;22603;47.900;8.146;2022-07-29T19:55:02;16.20;99.90
36594;DHT22;22603;47.900;8.146;2022-07-29T19:57:52;16.10;99.90
36594;DHT22;22603;47.900;8.146;2022-07-29T20:00:39;16.00;99.90
36594;DHT22;22603;47.900;8.146;2022-07-29T20:03:29;15.90;99.90
36594;DHT22;22603;47.900;8.146;2022-07-29T20:06:16;15.80;99.90
36594;DHT22;22603;47.900;8.146;2022-07-29T20:09:04;15.80;99.90
36594;DHT22;22603;47.900;8.146;2022-07-29T20:12:05;15.80;99.90
36594;DHT22;22603;47.900;8.146;2022-07-29T20:14:52;15.70;99.90
36594;DHT22;22603;47.900;8.146;2022-07-29T20:17:40;15.50;99.90
36594;DHT22;22603;47.900;8.146;2022-07-29T20:20:29;15.40;99.90
36594;DHT22;22603;47.900;8.146;2022-07-29T20:23:16;15.40;99.90
36594;DHT22;22603;47.900;8.146;2022-07-29T20:26:03;15.40;99.90
36594;DHT22;22603;47.900;8.146;2022-07-29T20:28:54;15.20;99.90
36594;DHT22;22603;47.900;8.146;2022-07-29T20:31:41;15.20;99.90
36594;DHT22;22603;47.900;8.146;2022-07-29T20:34:37;15.20;99.90
36594;DHT22;22603;47.900;8.146;2022-07-29T20:37:27;15.10;99.90
36594;DHT22;22603;47.900;8.146;2022-07-29T20:40:14;15.10;99.90
36594;DHT22;22603;47.900;8.146;2022-07-29T20:43:01;15.00;99.90
36594;DHT22;22603;47.900;8.146;2022-07-29T20:45:48;15.00;99.90
36594;DHT22;22603;47.900;8.146;2022-07-29T20:48:36;15.00;99.90
36594;DHT22;22603;47.900;8.146;2022-07-29T20:51:24;14.90;99.90
36594;DHT22;22603;47.900;8.146;2022-07-29T20:54:13;14.90;99.90
36594;DHT22;22603;47.900;8.146;2022-07-29T20:57:00;14.80;99.90
36594;DHT22;22603;47.900;8.146;2022-07-29T20:59:47;14.80;99.90
36594;DHT22;22603;47.900;8.146;2022-07-29T21:02:35;14.70;99.90
36594;DHT22;22603;47.900;8.146;2022-07-29T21:05:22;14.50;99.90
36594;DHT22;22603;47.900;8.146;2022-07-29T21:08:11;14.40;99.90
36594;DHT22;22603;47.900;8.146;2022-07-29T21:10:59;14.30;99.90
36594;DHT22;22603;47.900;8.146;2022-07-29T21:13:46;14.30;99.90
36594;DHT22;22603;47.900;8.146;2022-07-29T21:16:33;14.20;99.90
36594;DHT22;22603;47.900;8.146;2022-07-29T21:19:20;14.20;99.90
36594;DHT22;22603;47.900;8.146;2022-07-29T21:22:08;14.10;99.90
36594;DHT22;22603;47.900;8.146;2022-07-29T21:24:55;14.00;99.90
36594;DHT22;22603;47.900;8.146;2022-07-29T21:27:43;13.90;99.90
36594;DHT22;22603;47.900;8.146;2022-07-29T21:30:48;13.80;99.90
36594;DHT22;22603;47.900;8.146;2022-07-29T21:33:36;13.80;99.90
36594;DHT22;22603;47.900;8.146;2022-07-29T21:36:23;13.70;99.90
36594;DHT22;22603;47.900;8.146;2022-07-29T21:39:30;13.60;99.90
36594;DHT22;22603;47.900;8.146;2022-07-29T21:46:49;13.40;99.90
36594;DHT22;22603;47.900;8.146;2022-07-29T21:49:39;13.30;99.90
36594;DHT22;22603;47.900;8.146;2022-07-29T21:52:26;13.30;99.90
36594;DHT22;22603;47.900;8.146;2022-07-29T21:55:14;13.20;99.90
36594;DHT22;22603;47.900;8.146;2022-07-29T21:58:04;13.20;99.90
